Time;durP1;ratioP1;P1;durP2;ratioP2;P2;SDS_P1;SDS_P2;PMS_P1;PMS_P2;Temp;Humidity;BMP_temperature;BMP_pressure;BME280_temperature;BME280_humidity;BME280_pressure;Samples;Min_cycle;Max_cycle;Signal;HPM_P1;HPM_P2
2022/01/26 00:00:20;;;;;;;19.95;16.52;;;17.90;96.20;;;;;;4161665;28;20267;-75
2022/01/26 00:07:02;;;;;;;23.85;17.73;;;17.90;96.20;;;;;;4162027;28;20189;-75
2022/01/26 00:09:05;;;;;;;23.52;17.80;;;17.90;96.20;;;;;;4162001;28;20298;-75
2022/01/26 00:11:09;;;;;;;21.58;18.00;;;17.90;96.20;;;;;;4162109;28;20263;-75
2022/01/26 00:13:12;;;;;;;22.90;17.85;;;17.90;96.20;;;;;;4164856;28;20216;-75
2022/01/26 00:15:14;;;;;;;21.88;17.25;;;17.90;96.20;;;;;;4164931;28;20266;-76
2022/01/26 00:17:17;;;;;;;24.63;18.60;;;17.90;96.20;;;;;;4162846;28;20220;-75
2022/01/26 00:19:23;;;;;;;20.42;16.70;;;17.90;96.10;;;;;;4162704;28;20220;-75
2022/01/26 00:21:30;;;;;;;23.35;17.85;;;17.90;96.10;;;;;;4164990;28;20643;-75
2022/01/26 00:23:51;;;;;;;22.60;16.98;;;17.90;96.10;;;;;;4164111;28;20216;-75
2022/01/26 00:26:05;;;;;;;21.38;17.45;;;17.80;96.10;;;;;;4165215;28;20216;-75
2022/01/26 00:39:43;;;;;;;24.80;19.73;;;17.80;96.10;;;;;;4164721;28;20213;-75
2022/01/26 00:41:46;;;;;;;25.23;19.00;;;17.80;96.10;;;;;;4164608;28;20241;-75
2022/01/26 00:43:55;;;;;;;23.33;18.65;;;17.80;96.00;;;;;;4164850;28;21060;-75
2022/01/26 00:45:59;;;;;;;25.45;19.75;;;17.80;96.00;;;;;;4162421;28;20270;-75
2022/01/26 00:48:05;;;;;;;23.45;19.33;;;17.80;96.10;;;;;;4160207;28;20277;-75
2022/01/26 00:50:11;;;;;;;24.40;19.35;;;17.80;96.00;;;;;;4164856;28;20212;-75
2022/01/26 00:52:20;;;;;;;24.75;19.52;;;17.80;96.00;;;;;;4162695;28;20208;-75
2022/01/26 00:54:22;;;;;;;24.60;19.55;;;17.80;95.90;;;;;;4164521;28;20282;-75
2022/01/26 00:56:24;;;;;;;23.40;19.10;;;17.70;95.90;;;;;;4160616;28;20271;-74
2022/01/26 00:58:27;;;;;;;24.27;19.35;;;17.70;95.90;;;;;;4163646;28;20729;-75
2022/01/26 01:00:31;;;;;;;24.70;19.92;;;17.70;95.90;;;;;;4164147;28;20213;-75
2022/01/26 01:02:33;;;;;;;25.63;19.65;;;17.70;95.90;;;;;;4163782;28;20280;-75
2022/01/26 01:04:36;;;;;;;24.42;20.45;;;17.70;95.80;;;;;;4164422;28;20728;-78
2022/01/26 01:06:45;;;;;;;24.92;20.20;;;17.70;95.80;;;;;;4164056;28;20720;-75
2022/01/26 01:08:47;;;;;;;24.67;20.27;;;17.70;95.90;;;;;;4161737;28;20288;-75
2022/01/26 01:10:51;;;;;;;26.00;20.02;;;17.70;95.90;;;;;;4164161;28;20237;-75
2022/01/26 01:12:56;;;;;;;26.13;20.55;;;17.70;95.80;;;;;;4161851;28;20217;-75
2022/01/26 01:14:58;;;;;;;26.25;20.63;;;17.70;95.80;;;;;;4166899;28;20275;-75
2022/01/26 01:17:04;;;;;;;24.38;19.80;;;17.60;95.80;;;;;;4164111;28;20275;-75
2022/01/26 01:19:11;;;;;;;25.15;19.55;;;17.60;95.80;;;;;;4163881;28;20275;-75
2022/01/26 01:26:22;;;;;;;26.65;21.23;;;17.70;95.80;;;;;;4161112;28;20279;-75
2022/01/26 01:28:33;;;;;;;26.75;20.35;;;17.60;96.10;;;;;;4163896;28;20257;-75
2022/01/26 01:30:39;;;;;;;26.35;20.35;;;17.60;95.60;;;;;;4160873;28;20217;-75
2022/01/26 01:32:52;;;;;;;24.48;19.40;;;17.60;95.60;;;;;;4167556;28;20625;-75
2022/01/26 01:34:54;;;;;;;27.00;21.65;;;17.60;96.10;;;;;;4164108;28;20979;-75
2022/01/26 01:37:02;;;;;;;26.73;21.40;;;17.60;95.80;;;;;;4163988;28;20244;-75
2022/01/26 01:39:07;;;;;;;26.65;21.40;;;17.60;95.70;;;;;;4163901;28;20614;-75
2022/01/26 01:41:10;;;;;;;26.40;20.20;;;17.60;95.70;;;;;;4163917;28;20270;-75
2022/01/26 01:43:14;;;;;;;28.48;21.20;;;17.60;95.70;;;;;;4163215;28;20294;-74
2022/01/26 01:45:16;;;;;;;26.00;21.33;;;17.60;95.70;;;;;;4163560;28;20270;-75
2022/01/26 01:47:18;;;;;;;25.67;20.95;;;17.60;95.70;;;;;;4163472;28;20266;-75
2022/01/26 01:49:22;;;;;;;26.90;20.95;;;17.60;95.60;;;;;;4158747;28;20310;-75
2022/01/26 01:51:29;;;;;;;26.08;20.90;;;17.50;95.60;;;;;;4162778;28;20212;-75
2022/01/26 01:53:36;;;;;;;27.05;21.48;;;17.50;95.50;;;;;;4163239;28;20259;-75
2022/01/26 01:55:40;;;;;;;26.60;20.83;;;17.50;95.60;;;;;;4163618;28;20259;-75
2022/01/26 01:57:43;;;;;;;24.40;19.95;;;17.50;95.60;;;;;;4163626;28;20251;-75
2022/01/26 01:59:45;;;;;;;26.98;21.08;;;17.50;95.90;;;;;;4161215;28;20319;-75
2022/01/26 02:01:48;;;;;;;26.00;21.20;;;17.50;95.50;;;;;;4163800;28;20212;-75
2022/01/26 02:03:50;;;;;;;27.20;21.60;;;17.50;95.50;;;;;;4163160;28;20259;-75
2022/01/26 02:05:54;;;;;;;30.75;21.73;;;17.50;95.50;;;;;;4163155;28;20262;-75
2022/01/26 02:07:56;;;;;;;26.95;21.42;;;17.50;95.50;;;;;;4160619;28;20290;-75
2022/01/26 02:09:58;;;;;;;27.67;21.75;;;17.50;95.50;;;;;;4165430;28;20212;-75
2022/01/26 02:12:11;;;;;;;25.92;21.00;;;17.50;95.50;;;;;;4163254;28;20208;-75
2022/01/26 02:14:20;;;;;;;28.20;21.95;;;17.50;95.50;;;;;;4163193;28;20275;-75
2022/01/26 02:16:28;;;;;;;26.83;22.08;;;17.50;95.40;;;;;;4162728;28;20283;-75
2022/01/26 02:18:47;;;;;;;24.80;20.45;;;17.50;95.40;;;;;;4162115;28;20565;-75
2022/01/26 02:55:56;;;;;;;26.10;20.95;;;17.30;95.20;;;;;;4161657;28;20661;-75
2022/01/26 03:00:39;;;;;;;27.27;22.38;;;17.30;95.20;;;;;;4123651;28;20686;-75
2022/01/26 03:02:47;;;;;;;29.33;22.73;;;17.30;95.20;;;;;;4148248;28;20266;-75
2022/01/26 03:04:52;;;;;;;26.77;21.77;;;17.30;95.20;;;;;;4162551;28;20224;-75
2022/01/26 03:07:01;;;;;;;28.58;22.38;;;17.30;95.20;;;;;;4162645;28;20220;-75
2022/01/26 03:09:10;;;;;;;26.27;21.83;;;17.30;95.20;;;;;;4161227;28;20978;-75
2022/01/26 03:11:14;;;;;;;28.85;23.02;;;17.30;95.20;;;;;;4162395;28;20270;-76
2022/01/26 03:13:21;;;;;;;26.88;21.60;;;17.30;95.20;;;;;;4161352;28;20225;-75
2022/01/26 03:15:28;;;;;;;27.83;22.30;;;17.30;95.20;;;;;;4161976;28;20290;-75
2022/01/26 03:17:46;;;;;;;26.90;22.05;;;17.30;95.20;;;;;;4162234;28;20719;-75
2022/01/26 03:19:52;;;;;;;31.58;23.33;;;17.20;95.20;;;;;;4158858;28;20220;-75
2022/01/26 03:22:17;;;;;;;29.40;21.70;;;17.20;95.20;;;;;;4165154;28;20216;-75
2022/01/26 03:29:11;;;;;;;26.00;20.88;;;17.30;95.20;;;;;;4161399;28;20200;-75
2022/01/26 03:33:53;;;;;;;25.73;20.95;;;17.30;95.20;;;;;;4157134;28;20250;-75
2022/01/26 03:35:58;;;;;;;26.65;21.63;;;17.30;95.10;;;;;;4161743;28;20236;-75
2022/01/26 03:38:00;;;;;;;26.80;22.25;;;17.20;95.20;;;;;;4161816;28;20251;-75
2022/01/26 03:40:12;;;;;;;26.33;21.90;;;17.20;95.20;;;;;;4157550;28;20213;-75
2022/01/26 03:42:15;;;;;;;27.85;22.02;;;17.20;95.20;;;;;;4160025;28;20212;-75
2022/01/26 03:44:18;;;;;;;28.92;21.60;;;17.20;95.20;;;;;;4162058;28;20240;-75
2022/01/26 03:46:20;;;;;;;26.88;20.60;;;17.20;95.10;;;;;;4161177;28;20216;-75
2022/01/26 03:48:23;;;;;;;28.52;21.67;;;17.10;95.10;;;;;;4161536;28;20569;-75
2022/01/26 03:50:26;;;;;;;27.40;21.17;;;17.10;95.20;;;;;;4161872;28;20799;-75
2022/01/26 03:52:28;;;;;;;27.17;21.50;;;17.20;95.20;;;;;;4161990;28;20224;-75
2022/01/26 03:54:31;;;;;;;25.75;20.33;;;17.10;95.20;;;;;;4161972;28;20868;-75
2022/01/26 03:56:35;;;;;;;26.95;20.98;;;17.20;95.20;;;;;;4161423;28;20245;-75
2022/01/26 03:58:37;;;;;;;25.00;20.27;;;17.20;95.20;;;;;;4160390;28;21297;-75
2022/01/26 04:00:40;;;;;;;26.08;21.35;;;17.10;95.20;;;;;;4161695;28;20216;-75
2022/01/26 04:02:42;;;;;;;26.90;20.13;;;17.10;95.20;;;;;;4161690;28;20209;-77
2022/01/26 04:04:50;;;;;;;24.48;20.30;;;17.10;95.20;;;;;;4161914;28;20220;-77
2022/01/26 04:06:54;;;;;;;26.38;20.70;;;17.10;95.20;;;;;;4161864;28;20247;-77
2022/01/26 04:08:56;;;;;;;24.58;20.15;;;17.10;95.20;;;;;;4161618;28;20279;-77
2022/01/26 04:11:09;;;;;;;25.08;20.80;;;17.10;95.20;;;;;;4161992;28;20220;-77
2022/01/26 04:13:13;;;;;;;25.40;19.95;;;17.10;95.20;;;;;;4161764;28;20275;-76
2022/01/26 04:15:24;;;;;;;24.27;19.48;;;17.10;95.50;;;;;;4160984;28;20216;-77
2022/01/26 04:17:26;;;;;;;26.52;20.30;;;17.10;95.20;;;;;;4160173;28;20251;-77
2022/01/26 04:19:32;;;;;;;25.85;20.42;;;17.10;95.20;;;;;;4161566;28;20715;-77
2022/01/26 04:21:47;;;;;;;26.35;20.65;;;17.10;95.20;;;;;;4161621;28;20251;-77
2022/01/26 04:23:54;;;;;;;23.58;18.92;;;17.00;95.20;;;;;;4158017;28;20244;-77
2022/01/26 04:25:57;;;;;;;25.17;19.58;;;17.00;95.20;;;;;;4161555;28;20204;-78
2022/01/26 04:28:04;;;;;;;25.17;20.50;;;17.00;95.10;;;;;;4161390;28;20263;-77
2022/01/26 04:30:09;;;;;;;23.55;19.00;;;17.10;95.20;;;;;;4161864;28;20255;-77
2022/01/26 04:32:14;;;;;;;25.90;20.33;;;17.00;95.20;;;;;;4161445;28;20208;-77
2022/01/26 04:34:16;;;;;;;23.73;19.60;;;17.00;95.20;;;;;;4160207;28;20209;-77
2022/01/26 04:36:24;;;;;;;24.20;19.70;;;17.00;95.20;;;;;;4158953;28;20240;-77
2022/01/26 04:38:32;;;;;;;25.20;19.52;;;17.00;95.20;;;;;;4162083;28;20220;-77
2022/01/26 04:40:40;;;;;;;23.95;19.17;;;17.00;95.20;;;;;;4160898;28;20266;-77
2022/01/26 04:42:51;;;;;;;24.83;19.63;;;17.00;95.20;;;;;;4161474;28;20601;-77
2022/01/26 04:44:54;;;;;;;24.60;18.38;;;17.00;95.10;;;;;;4161238;28;20236;-77
2022/01/26 04:46:58;;;;;;;27.27;20.38;;;17.00;95.20;;;;;;4161549;28;20247;-77
2022/01/26 04:49:01;;;;;;;25.95;19.08;;;17.00;95.20;;;;;;4161327;28;20287;-77
2022/01/26 04:51:03;;;;;;;26.67;20.17;;;16.90;95.20;;;;;;4159719;28;20216;-77
2022/01/26 04:53:05;;;;;;;25.15;20.50;;;16.90;95.10;;;;;;4160952;28;20275;-77
2022/01/26 04:55:09;;;;;;;23.73;19.27;;;16.90;95.20;;;;;;4161349;28;20212;-77
2022/01/26 04:57:11;;;;;;;27.13;19.67;;;16.90;95.20;;;;;;4162116;28;20216;-77
2022/01/26 04:59:13;;;;;;;24.45;19.38;;;16.90;95.20;;;;;;4163811;28;20220;-77
2022/01/26 05:01:16;;;;;;;25.15;19.45;;;16.90;95.20;;;;;;4164782;28;20216;-77
2022/01/26 05:03:20;;;;;;;23.13;18.60;;;16.90;95.20;;;;;;4164114;28;20232;-77
2022/01/26 05:05:22;;;;;;;23.80;19.05;;;16.90;95.30;;;;;;4164128;28;20208;-77
2022/01/26 05:07:24;;;;;;;24.15;18.88;;;16.90;95.30;;;;;;4162167;28;20208;-77
2022/01/26 05:09:27;;;;;;;23.77;18.80;;;16.80;95.20;;;;;;4164629;28;21050;-77
2022/01/26 05:11:35;;;;;;;23.52;19.35;;;16.90;95.30;;;;;;4164343;28;20654;-77
2022/01/26 05:13:37;;;;;;;22.88;18.25;;;16.90;95.30;;;;;;4164222;28;20239;-77
2022/01/26 05:15:39;;;;;;;21.88;17.08;;;16.90;95.30;;;;;;4164289;28;20259;-77
2022/01/26 05:17:42;;;;;;;24.33;18.70;;;16.80;95.20;;;;;;4164211;28;20658;-77
2022/01/26 05:19:46;;;;;;;24.83;18.83;;;16.80;95.30;;;;;;4162069;28;20728;-76
2022/01/26 05:21:49;;;;;;;21.50;18.00;;;16.90;95.30;;;;;;4163994;28;20209;-77
2022/01/26 05:23:51;;;;;;;22.80;18.50;;;16.80;95.30;;;;;;4163528;28;20244;-77
2022/01/26 05:25:54;;;;;;;21.80;18.13;;;16.90;95.30;;;;;;4164095;28;20217;-77
2022/01/26 05:27:57;;;;;;;24.00;19.42;;;16.80;95.40;;;;;;4164365;28;20216;-77
2022/01/26 05:30:00;;;;;;;23.83;18.42;;;16.80;95.30;;;;;;4164141;28;20649;-77
2022/01/26 05:32:02;;;;;;;23.92;18.98;;;16.80;95.30;;;;;;4160739;28;20214;-76
2022/01/26 05:34:04;;;;;;;23.60;17.52;;;16.80;95.30;;;;;;4163628;28;20263;-77
2022/01/26 05:36:08;;;;;;;26.67;19.23;;;16.80;95.30;;;;;;4163505;28;20262;-77
2022/01/26 05:38:11;;;;;;;25.02;18.77;;;16.80;95.30;;;;;;4163607;28;20274;-77
2022/01/26 05:40:14;;;;;;;22.50;17.98;;;16.80;95.30;;;;;;4163833;28;20619;-77
2022/01/26 05:42:17;;;;;;;25.13;19.23;;;16.80;95.30;;;;;;4163555;28;20251;-77
2022/01/26 05:44:19;;;;;;;23.83;18.65;;;16.80;95.30;;;;;;4163956;28;20236;-77
2022/01/26 05:46:28;;;;;;;24.65;18.33;;;16.80;95.40;;;;;;4163649;28;20260;-77
2022/01/26 05:48:30;;;;;;;22.23;18.13;;;16.80;95.30;;;;;;4164069;28;20216;-75
2022/01/26 05:50:33;;;;;;;23.00;18.15;;;16.80;95.30;;;;;;4163527;28;20213;-75
2022/01/26 05:52:36;;;;;;;26.50;18.60;;;16.80;95.30;;;;;;4163817;28;20259;-74
2022/01/26 05:54:39;;;;;;;23.20;18.33;;;16.60;95.60;;;;;;4163763;28;20263;-75
2022/01/26 05:56:42;;;;;;;22.75;18.50;;;16.40;96.00;;;;;;4163486;28;20212;-75
2022/01/26 05:58:44;;;;;;;25.75;19.55;;;16.40;96.00;;;;;;4161526;28;20217;-75
2022/01/26 06:00:47;;;;;;;24.55;18.85;;;16.50;95.90;;;;;;4163216;28;20213;-75
2022/01/26 06:02:49;;;;;;;23.35;18.20;;;16.70;95.90;;;;;;4161742;28;20221;-75
2022/01/26 06:04:51;;;;;;;24.50;18.58;;;16.70;95.60;;;;;;4163426;28;20232;-75
2022/01/26 06:06:53;;;;;;;23.38;17.83;;;16.90;95.50;;;;;;4163560;28;20216;-75
2022/01/26 06:08:58;;;;;;;27.95;21.20;;;16.90;95.40;;;;;;4162709;28;20259;-75
2022/01/26 06:11:01;;;;;;;27.08;20.92;;;17.00;95.40;;;;;;4158659;28;20224;-75
2022/01/26 06:13:04;;;;;;;23.25;18.45;;;17.00;95.40;;;;;;4159246;28;20216;-75
2022/01/26 06:15:07;;;;;;;30.10;20.48;;;17.00;95.60;;;;;;4160804;28;20221;-75
2022/01/26 06:17:09;;;;;;;26.33;20.15;;;17.00;95.70;;;;;;4163272;28;20721;-75
2022/01/26 06:19:11;;;;;;;25.15;19.98;;;17.10;95.60;;;;;;4163250;28;20276;-75
2022/01/26 06:21:14;;;;;;;25.60;19.70;;;17.10;95.70;;;;;;4163400;28;20724;-75
2022/01/26 06:23:16;;;;;;;30.25;20.83;;;17.10;95.80;;;;;;4163134;28;20298;-75
2022/01/26 06:25:20;;;;;;;25.83;20.08;;;17.20;95.70;;;;;;4157402;28;20270;-75
2022/01/26 06:27:22;;;;;;;26.83;20.02;;;17.20;96.20;;;;;;4160533;28;20263;-75
2022/01/26 06:29:25;;;;;;;26.30;20.25;;;17.20;95.90;;;;;;4162295;28;20629;-75
2022/01/26 06:31:28;;;;;;;26.50;20.17;;;17.20;96.00;;;;;;4161499;28;20208;-75
2022/01/26 06:33:32;;;;;;;28.35;21.42;;;17.20;95.90;;;;;;4161333;28;20221;-75
2022/01/26 06:35:35;;;;;;;27.98;20.40;;;17.20;96.20;;;;;;4162076;28;20208;-75
2022/01/26 06:37:38;;;;;;;26.02;19.77;;;17.20;96.00;;;;;;4162901;28;20251;-75
2022/01/26 06:39:41;;;;;;;26.33;20.05;;;17.30;96.10;;;;;;4162810;28;20247;-75
2022/01/26 06:41:50;;;;;;;27.10;19.73;;;17.20;96.10;;;;;;4158566;28;20224;-75
2022/01/26 06:44:00;;;;;;;24.40;18.45;;;17.20;96.40;;;;;;4164154;28;20614;-75
2022/01/26 06:46:05;;;;;;;25.83;19.67;;;17.30;96.40;;;;;;4162757;28;20287;-75
2022/01/26 06:50:33;;;;;;;27.23;19.95;;;17.20;96.50;;;;;;4149994;28;20290;-75
2022/01/26 06:52:35;;;;;;;24.02;17.63;;;17.30;96.50;;;;;;4161425;28;20217;-75
2022/01/26 06:54:37;;;;;;;22.60;17.05;;;17.30;96.70;;;;;;4161704;28;20263;-75
2022/01/26 06:56:40;;;;;;;23.38;17.27;;;17.30;96.40;;;;;;4161849;28;20208;-75
2022/01/26 06:58:43;;;;;;;22.70;16.55;;;17.30;96.80;;;;;;4161843;28;20217;-75
2022/01/26 07:00:46;;;;;;;21.42;17.23;;;17.30;96.80;;;;;;4162041;28;20298;-75
2022/01/26 07:02:48;;;;;;;25.85;18.40;;;17.30;96.80;;;;;;4162060;28;20208;-75
2022/01/26 07:04:50;;;;;;;22.27;17.17;;;17.30;96.80;;;;;;4162712;28;20582;-75
2022/01/26 07:06:53;;;;;;;26.23;18.92;;;17.30;96.90;;;;;;4162533;28;20201;-75
2022/01/26 07:08:55;;;;;;;21.67;16.23;;;17.30;97.30;;;;;;4162513;28;20217;-75
2022/01/26 07:10:57;;;;;;;21.38;17.08;;;17.30;97.40;;;;;;4162804;28;20217;-75
2022/01/26 07:13:01;;;;;;;25.13;18.27;;;17.30;97.10;;;;;;4162664;28;20224;-75
2022/01/26 07:19:53;;;;;;;20.70;15.85;;;17.30;97.40;;;;;;4162723;28;20200;-75
2022/01/26 07:21:55;;;;;;;23.33;16.88;;;17.30;97.20;;;;;;4162123;28;20216;-75
2022/01/26 07:24:01;;;;;;;20.60;16.92;;;17.30;97.10;;;;;;4158291;28;20264;-75
2022/01/26 07:26:04;;;;;;;21.73;16.80;;;17.40;97.20;;;;;;4162470;28;20224;-75
2022/01/26 07:28:06;;;;;;;20.45;16.17;;;17.40;97.50;;;;;;4162068;28;20225;-75
2022/01/26 07:30:11;;;;;;;21.83;16.73;;;17.30;97.60;;;;;;4162571;28;20255;-75
2022/01/26 07:32:13;;;;;;;21.70;16.30;;;17.30;97.20;;;;;;4160184;28;20278;-75
2022/01/26 07:34:19;;;;;;;22.02;16.05;;;17.30;97.40;;;;;;4162265;28;20216;-75
2022/01/26 07:36:22;;;;;;;21.33;17.23;;;17.40;97.50;;;;;;4160939;28;20287;-75
2022/01/26 07:38:25;;;;;;;19.50;15.85;;;17.40;97.40;;;;;;4161941;28;20221;-76
2022/01/26 07:40:28;;;;;;;21.52;16.02;;;17.40;97.40;;;;;;4160794;28;20635;-75
2022/01/26 07:42:31;;;;;;;20.13;16.23;;;17.40;97.50;;;;;;4162275;28;20212;-75
2022/01/26 07:44:33;;;;;;;27.63;19.38;;;17.40;97.40;;;;;;4162922;28;20211;-75
2022/01/26 07:46:37;;;;;;;21.90;15.35;;;17.40;97.40;;;;;;4161959;28;20680;-75
2022/01/26 07:48:39;;;;;;;21.38;16.63;;;17.40;97.80;;;;;;4162118;28;20220;-75
2022/01/26 07:50:42;;;;;;;23.58;16.25;;;17.40;97.80;;;;;;4162144;28;20209;-75
2022/01/26 07:52:44;;;;;;;21.58;15.98;;;17.40;97.60;;;;;;4162184;28;20605;-76
2022/01/26 07:54:50;;;;;;;20.55;15.48;;;17.40;97.50;;;;;;4161931;28;20239;-75
2022/01/26 07:56:53;;;;;;;27.73;19.73;;;17.40;97.50;;;;;;4160759;28;20228;-78
2022/01/26 07:58:56;;;;;;;23.45;18.30;;;17.30;97.10;;;;;;4157967;28;20275;-77
2022/01/26 08:00:59;;;;;;;21.73;16.67;;;17.40;96.10;;;;;;4158388;28;20220;-76
2022/01/26 08:03:02;;;;;;;29.13;20.73;;;17.60;97.80;;;;;;4162530;28;20216;-77
2022/01/26 08:05:05;;;;;;;30.65;20.80;;;17.60;96.10;;;;;;4163187;28;20338;-76
2022/01/26 08:07:08;;;;;;;27.30;19.58;;;17.70;97.20;;;;;;4150243;28;20216;-77
2022/01/26 08:09:10;;;;;;;28.35;20.10;;;17.90;95.90;;;;;;4162563;28;20261;-79
2022/01/26 08:11:12;;;;;;;25.33;20.15;;;17.90;95.10;;;;;;4159777;28;20212;-78
2022/01/26 08:13:15;;;;;;;26.27;19.17;;;17.90;95.30;;;;;;4162315;28;20220;-78
2022/01/26 08:15:18;;;;;;;25.90;19.13;;;18.10;95.80;;;;;;4154855;28;20279;-76
2022/01/26 08:17:20;;;;;;;29.05;20.98;;;18.30;96.10;;;;;;4154619;28;20220;-74
2022/01/26 08:19:24;;;;;;;27.08;19.05;;;18.40;95.30;;;;;;4159816;28;20263;-77
2022/01/26 08:21:26;;;;;;;22.73;17.83;;;18.40;95.60;;;;;;4161305;28;20293;-76
2022/01/26 08:23:29;;;;;;;23.75;17.58;;;18.40;95.70;;;;;;4166615;28;20273;-75
2022/01/26 08:25:31;;;;;;;24.13;18.70;;;18.40;95.60;;;;;;4166941;28;20719;-77
2022/01/26 08:27:40;;;;;;;22.35;16.92;;;18.50;96.80;;;;;;4161926;28;20217;-78
2022/01/26 08:29:46;;;;;;;23.80;16.80;;;18.60;97.40;;;;;;4164889;28;20220;-79
2022/01/26 08:31:49;;;;;;;22.20;17.02;;;18.70;96.40;;;;;;4159538;28;20221;-77
2022/01/26 08:33:51;;;;;;;21.90;17.00;;;18.80;96.40;;;;;;4165274;28;20224;-79
2022/01/26 08:35:55;;;;;;;21.42;16.95;;;18.80;95.80;;;;;;4160874;28;20240;-79
2022/01/26 08:37:57;;;;;;;21.20;16.48;;;18.80;96.80;;;;;;4159919;28;20216;-77
2022/01/26 08:40:00;;;;;;;22.83;16.60;;;18.90;96.90;;;;;;4164968;28;20256;-77
2022/01/26 08:42:05;;;;;;;20.05;15.93;;;18.90;96.90;;;;;;4165313;28;20706;-75
2022/01/26 08:44:07;;;;;;;20.92;17.02;;;18.90;96.80;;;;;;4168585;28;20757;-79
2022/01/26 08:46:10;;;;;;;20.85;17.23;;;19.00;96.70;;;;;;4162021;28;20693;-77
2022/01/26 08:48:12;;;;;;;22.05;17.38;;;19.00;96.60;;;;;;4159255;28;20284;-74
2022/01/26 08:50:15;;;;;;;22.08;17.55;;;19.10;96.50;;;;;;4165500;28;20255;-73
2022/01/26 08:52:19;;;;;;;25.13;18.40;;;19.10;96.30;;;;;;4164336;28;20216;-75
2022/01/26 08:54:22;;;;;;;22.65;17.85;;;19.10;95.80;;;;;;4163325;28;20312;-74
2022/01/26 08:56:25;;;;;;;19.98;16.60;;;19.10;95.90;;;;;;4163490;28;20212;-74
2022/01/26 08:58:28;;;;;;;19.10;15.25;;;19.10;96.70;;;;;;4161285;28;20224;-75
2022/01/26 09:00:30;;;;;;;18.00;15.00;;;19.20;97.10;;;;;;4161157;28;20220;-80
2022/01/26 09:02:32;;;;;;;19.02;15.65;;;19.20;96.80;;;;;;4165199;28;20221;-77
2022/01/26 09:04:35;;;;;;;20.08;15.82;;;19.30;96.80;;;;;;4170106;28;20220;-78
2022/01/26 09:06:49;;;;;;;19.52;16.05;;;19.30;96.60;;;;;;4165341;28;20292;-79
2022/01/26 09:09:00;;;;;;;20.48;17.55;;;19.40;96.50;;;;;;4167638;28;20283;-79
2022/01/26 09:11:03;;;;;;;22.50;17.23;;;19.40;96.10;;;;;;4166330;28;20637;-80
2022/01/26 09:13:05;;;;;;;17.83;14.82;;;19.40;96.00;;;;;;4169445;28;20208;-78
2022/01/26 09:15:09;;;;;;;19.00;14.48;;;19.40;96.70;;;;;;4165689;28;20203;-76
2022/01/26 09:17:12;;;;;;;19.83;16.05;;;19.40;96.90;;;;;;4166123;28;20720;-75
2022/01/26 09:19:26;;;;;;;19.67;15.23;;;19.50;97.00;;;;;;4162817;28;20267;-78
2022/01/26 09:21:31;;;;;;;18.85;14.93;;;19.40;95.90;;;;;;4164302;28;20267;-77
2022/01/26 09:23:34;;;;;;;18.63;15.15;;;19.50;96.50;;;;;;4164039;28;20212;-77
2022/01/26 09:25:37;;;;;;;18.38;14.80;;;19.40;95.90;;;;;;4167455;28;20288;-77
2022/01/26 09:27:40;;;;;;;18.38;15.30;;;19.40;96.40;;;;;;4167795;28;20217;-77
2022/01/26 09:29:43;;;;;;;19.60;14.43;;;19.50;96.90;;;;;;4166721;28;20558;-76
2022/01/26 09:31:47;;;;;;;16.08;14.02;;;19.50;97.00;;;;;;4165552;28;20260;-77
2022/01/26 09:33:49;;;;;;;18.50;14.63;;;19.50;97.00;;;;;;4163153;28;20260;-77
2022/01/26 09:35:52;;;;;;;19.17;15.30;;;19.60;97.30;;;;;;4158460;28;20771;-77
2022/01/26 09:37:54;;;;;;;18.10;16.08;;;19.60;96.90;;;;;;4154686;28;20268;-77
2022/01/26 09:39:56;;;;;;;17.92;14.43;;;19.70;96.80;;;;;;4167766;28;20211;-77
2022/01/26 09:42:01;;;;;;;19.23;15.02;;;19.70;96.40;;;;;;4169778;28;20201;-78
2022/01/26 09:44:06;;;;;;;17.70;14.80;;;19.80;96.50;;;;;;4164227;28;20213;-77
2022/01/26 09:46:11;;;;;;;21.48;17.15;;;19.80;97.00;;;;;;4156908;28;20221;-73
2022/01/26 09:48:13;;;;;;;21.73;15.95;;;19.60;96.20;;;;;;4160547;28;20219;-79
2022/01/26 09:50:16;;;;;;;22.65;15.18;;;19.70;96.40;;;;;;4162736;28;20283;-79
2022/01/26 09:52:23;;;;;;;23.02;15.32;;;19.60;96.90;;;;;;4162610;28;20208;-76
2022/01/26 09:54:30;;;;;;;18.70;15.15;;;19.60;96.90;;;;;;4164497;28;20220;-77
2022/01/26 09:56:32;;;;;;;16.42;13.25;;;19.70;96.80;;;;;;4162305;28;20267;-79
2022/01/26 09:58:36;;;;;;;15.38;13.73;;;19.70;97.20;;;;;;4160438;28;20223;-77
2022/01/26 10:00:39;;;;;;;17.25;14.73;;;19.80;97.20;;;;;;4167957;28;20212;-78
2022/01/26 10:02:43;;;;;;;18.95;14.70;;;19.90;97.00;;;;;;4165112;28;20268;-78
2022/01/26 10:04:46;;;;;;;15.07;13.23;;;19.90;96.90;;;;;;4168612;28;20243;-80
2022/01/26 10:06:59;;;;;;;18.27;15.05;;;19.90;97.00;;;;;;4165167;28;20306;-80
2022/01/26 10:09:27;;;;;;;17.23;14.73;;;19.90;97.00;;;;;;4165571;28;20252;-79
2022/01/26 10:16:31;;;;;;;17.33;14.48;;;20.00;96.90;;;;;;4160896;28;20492;-76
2022/01/26 10:18:34;;;;;;;16.63;14.32;;;20.00;96.90;;;;;;4168607;28;20672;-80
2022/01/26 10:20:46;;;;;;;19.42;14.52;;;20.00;96.70;;;;;;4159776;28;20263;-80
2022/01/26 10:22:48;;;;;;;16.35;14.10;;;20.00;96.90;;;;;;4159801;28;20270;-80
2022/01/26 10:24:50;;;;;;;15.70;13.80;;;20.00;96.80;;;;;;4160291;28;20304;-81
2022/01/26 10:26:59;;;;;;;17.65;14.23;;;20.00;96.90;;;;;;4163102;28;20302;-80
2022/01/26 10:29:05;;;;;;;15.60;14.00;;;20.10;97.00;;;;;;4162958;28;20215;-77
2022/01/26 10:31:13;;;;;;;20.17;13.90;;;20.10;97.00;;;;;;4160546;28;20213;-79
2022/01/26 10:33:17;;;;;;;16.92;13.77;;;20.10;97.00;;;;;;4161457;28;20212;-75
2022/01/26 10:35:19;;;;;;;20.35;15.35;;;20.10;96.80;;;;;;4159036;28;20216;-77
2022/01/26 10:37:22;;;;;;;17.38;14.70;;;20.00;96.30;;;;;;4166187;28;20239;-77
2022/01/26 10:39:29;;;;;;;17.30;14.57;;;20.00;96.30;;;;;;4163436;28;20255;-76
2022/01/26 10:41:31;;;;;;;15.73;13.80;;;20.00;96.90;;;;;;4155580;28;20213;-77
2022/01/26 10:43:34;;;;;;;19.88;14.30;;;20.10;97.10;;;;;;4165510;28;20208;-75
2022/01/26 10:45:55;;;;;;;17.67;13.90;;;20.10;97.70;;;;;;4162101;28;20315;-77
2022/01/26 10:48:10;;;;;;;18.63;14.30;;;20.10;97.30;;;;;;4157196;28;20286;-76
2022/01/26 10:50:46;;;;;;;19.05;15.02;;;20.30;96.60;;;;;;4163541;28;20827;-79
2022/01/26 10:52:55;;;;;;;18.77;15.38;;;20.30;96.60;;;;;;4163874;28;21748;-77
2022/01/26 10:54:58;;;;;;;17.23;13.57;;;20.30;96.50;;;;;;4163705;28;20273;-78
2022/01/26 10:57:01;;;;;;;14.82;13.23;;;20.40;97.00;;;;;;4164206;28;20213;-77
2022/01/26 10:59:03;;;;;;;15.75;12.52;;;20.30;97.00;;;;;;4161008;28;20286;-77
2022/01/26 11:01:07;;;;;;;15.70;13.20;;;20.30;96.50;;;;;;4160777;28;20275;-78
2022/01/26 11:03:10;;;;;;;17.08;13.82;;;20.30;96.50;;;;;;4164372;28;20212;-76
2022/01/26 11:05:13;;;;;;;15.93;13.85;;;20.40;96.70;;;;;;4157880;28;20220;-77
2022/01/26 11:07:16;;;;;;;18.02;14.88;;;20.30;96.50;;;;;;4157998;28;20243;-76
2022/01/26 11:09:21;;;;;;;20.40;15.63;;;20.30;96.60;;;;;;4160545;28;20328;-75
2022/01/26 11:11:24;;;;;;;15.45;13.20;;;20.30;96.80;;;;;;4160127;28;20212;-76
2022/01/26 11:13:29;;;;;;;17.30;13.43;;;20.40;97.30;;;;;;4168375;28;20245;-75
2022/01/26 11:15:32;;;;;;;15.15;12.75;;;20.40;97.30;;;;;;4158553;28;20228;-77
2022/01/26 11:17:37;;;;;;;14.82;12.80;;;20.40;97.20;;;;;;4168090;28;20755;-77
2022/01/26 11:19:41;;;;;;;16.50;13.48;;;20.40;97.20;;;;;;4162505;28;20630;-76
2022/01/26 11:21:44;;;;;;;16.08;13.27;;;20.40;97.10;;;;;;4162251;28;20290;-77
2022/01/26 11:23:46;;;;;;;18.63;14.25;;;20.40;97.20;;;;;;4162693;28;20246;-76
2022/01/26 11:25:50;;;;;;;16.20;14.25;;;20.40;97.30;;;;;;4164046;28;20716;-75
2022/01/26 11:27:53;;;;;;;17.08;12.65;;;20.50;97.00;;;;;;4158826;28;20258;-75
2022/01/26 11:29:58;;;;;;;17.15;13.65;;;20.50;97.30;;;;;;4162550;28;20263;-76
2022/01/26 11:32:06;;;;;;;15.75;13.45;;;20.50;97.20;;;;;;4156230;28;20287;-75
2022/01/26 11:34:11;;;;;;;14.60;12.18;;;20.50;97.20;;;;;;4163251;28;20215;-74
2022/01/26 11:36:17;;;;;;;16.50;13.35;;;20.50;97.30;;;;;;4163403;28;20232;-74
2022/01/26 11:39:13;;;;;;;20.17;14.25;;;20.50;97.30;;;;;;4160307;28;20620;-75
2022/01/26 11:46:10;;;;;;;18.40;14.48;;;20.60;97.00;;;;;;4158669;28;20196;-77
2022/01/26 11:48:23;;;;;;;15.73;12.85;;;20.60;96.30;;;;;;4163695;28;20233;-76
2022/01/26 11:50:28;;;;;;;17.60;14.15;;;20.60;96.50;;;;;;4165042;28;20271;-76
2022/01/26 11:52:35;;;;;;;21.90;16.55;;;20.50;96.70;;;;;;4162129;28;20216;-76
2022/01/26 11:54:50;;;;;;;16.40;13.55;;;20.40;96.70;;;;;;4159866;28;20213;-76
2022/01/26 11:56:58;;;;;;;19.60;14.82;;;20.40;97.00;;;;;;4161105;28;20220;-76